Shawnee Mission, KS (66212)

04:36 CDT le 27 juillet 2016 (GMT -0500)
Heritage Farms | | Change Station

Alt. 981 ft 38.96 °N, 94.69 °W | Updated 13 seconds ago

Scattered Clouds
Nuages épars
71.1 ° F
Paraît 71.1 ° F
N
0.0
Vent Variable Vent de Ouest
Gusts 0.0 mph

Aujourd'hui
Haut(e) -- | Bas -- ° F
--% Risque de précip.
Hier
Haut(e) -- | Bas -- ° F
Precip. -- pouce
Pression 29.97 pouce
Visibilité 10.0 Miles terrestres
Nuages Nuages épars 3500 ft
Point de rosée 69 ° F
Humidité 92%
Précipitations 0.00 pouce
Profondeur de la couche neigeuse Non disponible.
6:15 AM 8:34 PM
Dernier quartier, 45% visible
METAR KMKC 270854Z 00000KT 10SM SCT035 23/19 A2999 RMK AO2 SLP147 T02330194 55000
Pression 29.97 pouce
Visibilité 10.0 Miles terrestres
Nuages Nuages épars 3500 ft
Point de rosée 69 ° F
Humidité 92%
Précipitations 0.00 pouce
Profondeur de la couche neigeuse Non disponible.
6:15 AM 8:34 PM
Dernier quartier, 45% visible
METAR KMKC 270854Z 00000KT 10SM SCT035 23/19 A2999 RMK AO2 SLP147 T02330194 55000

10-Day Weather Forecast

Almanac

Astronomie

Jul. 27, 2016 Lever Coucher
Temps réel
Crépuscule civil
Crépuscule nautique
Crépuscule astronomique
Lune
Durée de lumière visible
Longueur du jour
Tomorrow will be .
, % of the Moon is Illuminated

Extrêmes aujourd'hui

State Highs State Lows

Community

WunderPhotos

Upload Photos

1,927,818 Photos téléchargées !

WunderBlog® & News

Nearby

Qualité de l'air

  Qualité de l'air Indice de la qualité de l'air Polluant
Not available.

Épaisseur de neige

Station Depth Altitude

Activité sismique

Ville Distance Mag. Time & Date
Minimum magnitude displayed is 2.5.

Températures des eaux côtières

Lieu Température

Stations

Stations météo à proximité

Emplacement de la station Température Refroidissement éolien Point de rosée Humidité Vent Precip. Alt. Mise à jour Type
                   

Watches & Warnings

There are currently no watches in effect.